createdAt,value
2023-01-01T00:01:11.661Z,52.60
2023-01-01T00:04:15.903Z,50.72
2023-01-01T00:07:17.981Z,50.60
2023-01-01T00:10:31.095Z,47.65
2023-01-01T00:13:33.658Z,44.30
2023-01-01T00:16:35.820Z,44.20
2023-01-01T00:19:38.525Z,41.83
2023-01-01T00:22:54.625Z,46.72
2023-01-01T00:25:57.967Z,42.97
2023-01-01T00:29:00.148Z,41.55
2023-01-01T00:32:02.358Z,42.88
2023-01-01T00:35:05.269Z,44.20
2023-01-01T00:38:07.700Z,42.33
2023-01-01T00:41:10.216Z,39.65
2023-01-01T00:44:12.171Z,40.90
2023-01-01T00:47:14.285Z,38.03
2023-01-01T00:50:16.835Z,40.75
2023-01-01T00:53:20.230Z,40.65
2023-01-01T00:56:22.232Z,38.03
2023-01-01T00:59:28.708Z,39.47
2023-01-01T01:02:31.395Z,37.55
2023-01-01T01:05:37.190Z,40.53
2023-01-01T01:08:42.304Z,36.78
2023-01-01T01:11:44.347Z,39.60
2023-01-01T01:14:47.456Z,36.97
2023-01-01T01:17:49.639Z,37.67
2023-01-01T01:20:53.643Z,37.63
2023-01-01T01:23:59.945Z,38.97
2023-01-01T01:27:02.047Z,38.20
2023-01-01T01:30:04.786Z,40.03
2023-01-01T01:33:06.865Z,37.92
2023-01-01T01:36:11.104Z,37.53
2023-01-01T01:39:13.152Z,35.30
2023-01-01T01:42:19.000Z,37.25
2023-01-01T01:45:21.332Z,37.45
2023-01-01T01:48:24.951Z,37.60
2023-01-01T01:51:32.489Z,35.85
2023-01-01T01:54:34.577Z,37.35
2023-01-01T01:57:39.210Z,38.50
2023-01-01T02:00:41.463Z,37.95
2023-01-01T02:04:09.718Z,35.83
2023-01-01T02:07:15.155Z,36.53
2023-01-01T02:10:19.555Z,34.90
2023-01-01T02:13:22.211Z,38.75
2023-01-01T02:16:40.071Z,35.15
2023-01-01T02:20:03.458Z,35.85
2023-01-01T02:23:05.568Z,37.08
2023-01-01T02:26:40.739Z,33.67
2023-01-01T02:29:48.164Z,38.03
2023-01-01T02:32:59.172Z,34.97
2023-01-01T02:36:06.606Z,37.67
2023-01-01T02:39:10.868Z,36.03
2023-01-01T02:42:13.815Z,36.90
2023-01-01T02:45:16.058Z,36.90
2023-01-01T02:48:36.633Z,35.65
2023-01-01T02:52:04.404Z,37.08
2023-01-01T02:55:30.881Z,37.13
2023-01-01T02:59:11.562Z,33.58
2023-01-01T03:02:25.295Z,32.40
2023-01-01T03:06:04.803Z,34.33
2023-01-01T03:09:38.935Z,35.87
2023-01-01T03:12:56.057Z,35.28
2023-01-01T03:16:13.407Z,37.00
2023-01-01T03:19:20.891Z,33.65
2023-01-01T03:22:29.394Z,34.42
2023-01-01T03:28:53.083Z,35.03
2023-01-01T03:31:59.483Z,33.38
2023-01-01T03:35:03.510Z,32.60
2023-01-01T03:38:21.308Z,36.10
2023-01-01T03:41:44.651Z,34.22
2023-01-01T03:44:51.076Z,36.25
2023-01-01T03:47:53.554Z,35.13
2023-01-01T03:51:19.543Z,37.25
2023-01-01T03:54:33.419Z,37.95
2023-01-01T03:57:57.225Z,39.88
2023-01-01T04:01:11.434Z,41.05
2023-01-01T04:04:16.023Z,38.30
2023-01-01T04:07:18.503Z,39.47
2023-01-01T04:10:21.776Z,38.28
2023-01-01T04:13:24.272Z,39.28
2023-01-01T04:16:26.720Z,43.58
2023-01-01T04:19:29.372Z,39.55
2023-01-01T04:22:31.501Z,40.20
2023-01-01T04:25:34.915Z,39.20
2023-01-01T04:28:36.896Z,37.60
2023-01-01T04:31:38.918Z,37.13
2023-01-01T04:34:41.049Z,38.28
2023-01-01T04:37:44.656Z,40.15
2023-01-01T04:40:47.654Z,41.17
2023-01-01T04:43:50.779Z,41.25
2023-01-01T04:46:56.906Z,38.67
2023-01-01T04:50:02.162Z,37.70
2023-01-01T04:53:04.177Z,35.78
2023-01-01T04:56:16.602Z,35.05
2023-01-01T04:59:18.657Z,34.65
2023-01-01T05:02:21.115Z,31.38
2023-01-01T05:05:23.299Z,33.20
2023-01-01T05:08:25.600Z,30.88
2023-01-01T05:11:31.173Z,30.98
2023-01-01T05:14:33.983Z,32.33
2023-01-01T05:17:36.087Z,32.70
2023-01-01T05:20:39.534Z,31.50
2023-01-01T05:23:41.965Z,32.63
2023-01-01T05:26:46.711Z,32.35
2023-01-01T05:29:48.803Z,31.13
2023-01-01T05:32:51.292Z,32.22
2023-01-01T05:35:54.951Z,32.17
2023-01-01T05:38:58.465Z,30.85
2023-01-01T05:42:00.512Z,31.35
2023-01-01T05:45:03.841Z,32.92
2023-01-01T05:48:07.402Z,35.63
2023-01-01T05:51:18.311Z,34.53
2023-01-01T05:54:20.357Z,34.35
2023-01-01T05:57:22.505Z,33.58
2023-01-01T06:00:24.680Z,32.45
2023-01-01T06:03:26.684Z,33.08
2023-01-01T06:06:33.489Z,32.30
2023-01-01T06:09:35.565Z,33.38
2023-01-01T06:12:37.729Z,31.50
2023-01-01T06:15:39.864Z,32.92
2023-01-01T06:18:42.023Z,33.83
2023-01-01T06:21:44.096Z,31.38
2023-01-01T06:24:46.298Z,30.92
2023-01-01T06:27:48.412Z,30.80
2023-01-01T06:30:50.496Z,32.40
2023-01-01T06:33:52.907Z,29.67
2023-01-01T06:36:54.900Z,31.40
2023-01-01T06:39:56.891Z,32.00
2023-01-01T06:42:58.914Z,32.60
2023-01-01T06:46:05.272Z,34.35
2023-01-01T06:49:11.201Z,35.28
2023-01-01T06:52:13.380Z,33.75
2023-01-01T06:55:15.436Z,33.33
2023-01-01T06:58:17.475Z,35.83
2023-01-01T07:01:25.749Z,35.33
2023-01-01T07:04:27.833Z,32.28
2023-01-01T07:07:35.620Z,32.75
2023-01-01T07:10:37.982Z,34.53
2023-01-01T07:13:40.009Z,32.58
2023-01-01T07:16:42.170Z,31.17
2023-01-01T07:19:44.267Z,27.95
2023-01-01T07:22:47.052Z,30.85
2023-01-01T07:25:50.273Z,28.50
2023-01-01T07:28:52.810Z,28.98
2023-01-01T07:31:55.001Z,26.92
2023-01-01T07:35:00.118Z,27.17
2023-01-01T07:38:02.206Z,26.58
2023-01-01T07:41:05.622Z,26.77
2023-01-01T07:44:07.816Z,26.98
2023-01-01T07:47:22.834Z,28.38
2023-01-01T07:50:26.615Z,28.90
2023-01-01T07:53:28.891Z,22.73
2023-01-01T07:56:31.176Z,18.55
2023-01-01T07:59:33.397Z,18.08
2023-01-01T08:02:35.858Z,17.33
2023-01-01T08:05:38.617Z,18.60
2023-01-01T08:08:41.513Z,26.50
2023-01-01T08:11:43.709Z,25.60
2023-01-01T08:14:45.918Z,26.25
2023-01-01T08:17:47.919Z,26.60
2023-01-01T08:20:50.324Z,30.67
2023-01-01T08:23:54.094Z,27.95
2023-01-01T08:26:56.118Z,27.55
2023-01-01T08:29:58.156Z,25.90
2023-01-01T08:33:00.217Z,27.48
2023-01-01T08:36:02.675Z,25.80
2023-01-01T08:39:04.846Z,29.70
2023-01-01T08:42:12.180Z,28.67
2023-01-01T08:45:14.735Z,29.27
2023-01-01T08:48:16.787Z,29.65
2023-01-01T08:51:18.942Z,28.38
2023-01-01T08:54:21.030Z,27.83
2023-01-01T08:57:23.359Z,28.08
2023-01-01T09:00:25.601Z,27.35
2023-01-01T09:03:28.013Z,27.98
2023-01-01T09:06:30.270Z,27.85
2023-01-01T09:09:32.447Z,27.02
2023-01-01T09:12:35.132Z,27.42
2023-01-01T09:15:38.680Z,25.20
2023-01-01T09:18:40.725Z,26.60
2023-01-01T09:21:44.055Z,25.25
2023-01-01T09:24:46.169Z,24.50
2023-01-01T09:27:48.282Z,25.73
2023-01-01T09:30:50.398Z,27.08
2023-01-01T09:33:52.434Z,26.00
2023-01-01T09:36:54.431Z,26.13
2023-01-01T09:39:56.399Z,29.40
2023-01-01T09:43:33.656Z,25.98
2023-01-01T09:46:36.974Z,23.15
2023-01-01T09:49:44.627Z,17.45
2023-01-01T09:53:03.329Z,25.40
2023-01-01T09:56:06.584Z,25.70
2023-01-01T09:59:11.159Z,23.30
2023-01-01T10:02:48.073Z,25.10
2023-01-01T10:06:18.036Z,25.05
2023-01-01T10:09:27.937Z,24.77
2023-01-01T10:12:35.319Z,35.75
2023-01-01T10:15:42.697Z,27.17
2023-01-01T10:22:24.011Z,28.08
2023-01-01T10:25:40.663Z,29.23
2023-01-01T10:28:49.937Z,26.70
2023-01-01T10:32:05.563Z,26.42
2023-01-01T10:35:17.903Z,24.63
2023-01-01T10:38:26.775Z,25.13
2023-01-01T10:41:28.896Z,24.88
2023-01-01T10:44:34.054Z,24.70
2023-01-01T10:47:36.243Z,40.33
2023-01-01T10:50:46.468Z,25.95
2023-01-01T10:53:52.454Z,26.77
2023-01-01T10:56:54.643Z,24.60
2023-01-01T11:00:11.785Z,25.15
2023-01-01T11:03:21.955Z,24.75
2023-01-01T11:06:34.112Z,25.05
2023-01-01T11:09:38.796Z,27.00
2023-01-01T11:13:04.680Z,24.45
2023-01-01T11:16:11.465Z,24.48
2023-01-01T11:19:25.073Z,24.20
2023-01-01T11:22:59.497Z,24.35
2023-01-01T11:26:06.695Z,24.60
2023-01-01T11:29:17.732Z,23.38
2023-01-01T11:32:29.253Z,23.27
2023-01-01T11:35:38.274Z,22.30
2023-01-01T11:38:40.334Z,21.83
2023-01-01T11:41:50.756Z,23.60
2023-01-01T11:45:00.803Z,22.58
2023-01-01T11:48:06.473Z,23.10
2023-01-01T11:51:11.962Z,22.15
2023-01-01T11:54:32.988Z,23.13
2023-01-01T11:57:41.082Z,23.58
2023-01-01T12:00:50.123Z,24.73
2023-01-01T12:04:01.509Z,24.27
2023-01-01T12:07:19.364Z,24.05
2023-01-01T12:11:08.457Z,22.08
2023-01-01T12:14:37.296Z,23.80
2023-01-01T12:17:50.376Z,23.98
2023-01-01T12:21:13.588Z,22.45
2023-01-01T12:24:15.879Z,23.58
2023-01-01T12:27:27.088Z,23.42
2023-01-01T12:30:52.485Z,20.98
2023-01-01T12:34:06.535Z,24.55
2023-01-01T12:37:43.706Z,22.30
2023-01-01T12:40:57.634Z,21.75
2023-01-01T12:44:21.294Z,22.15
2023-01-01T12:47:39.984Z,23.27
2023-01-01T12:51:07.518Z,20.83
2023-01-01T12:54:18.737Z,22.85
2023-01-01T12:57:30.605Z,24.63
2023-01-01T13:00:33.690Z,21.15
2023-01-01T13:03:49.467Z,22.02
2023-01-01T13:06:56.375Z,21.63
2023-01-01T13:10:08.825Z,21.83
2023-01-01T13:13:12.569Z,22.98
2023-01-01T13:16:34.019Z,21.05
2023-01-01T13:19:41.075Z,22.67
2023-01-01T13:22:44.416Z,21.23
2023-01-01T13:25:46.394Z,21.50
2023-01-01T13:28:57.499Z,22.25
2023-01-01T13:32:04.410Z,21.02
2023-01-01T13:35:16.518Z,23.20
2023-01-01T13:38:53.590Z,21.55
2023-01-01T13:41:55.616Z,22.13
2023-01-01T13:44:57.879Z,22.70
2023-01-01T13:48:27.893Z,24.05
2023-01-01T13:52:05.838Z,22.63
2023-01-01T13:55:36.828Z,22.33
2023-01-01T14:01:53.228Z,23.25
2023-01-01T14:05:02.574Z,22.08
2023-01-01T14:08:13.132Z,21.30
2023-01-01T14:11:25.280Z,24.10
2023-01-01T14:14:31.127Z,24.23
2023-01-01T14:17:36.321Z,25.88
2023-01-01T14:20:45.134Z,24.33
2023-01-01T14:23:55.289Z,23.75
2023-01-01T14:26:57.750Z,22.48
2023-01-01T14:29:59.809Z,24.80
2023-01-01T14:33:03.153Z,24.83
2023-01-01T14:39:46.345Z,23.48
2023-01-01T14:42:51.295Z,23.60
2023-01-01T14:45:54.563Z,24.27
2023-01-01T14:49:06.480Z,26.50
2023-01-01T14:52:25.276Z,27.52
2023-01-01T14:55:43.919Z,25.02
2023-01-01T14:58:46.014Z,27.10
2023-01-01T15:02:13.957Z,26.40
2023-01-01T15:05:34.957Z,24.88
2023-01-01T15:08:40.943Z,26.70
2023-01-01T15:11:43.569Z,26.77
2023-01-01T15:14:47.187Z,28.77
2023-01-01T15:17:50.268Z,31.60
2023-01-01T15:20:55.689Z,30.15
2023-01-01T15:24:37.966Z,27.23
2023-01-01T15:27:49.427Z,25.70
2023-01-01T15:30:56.766Z,26.00
2023-01-01T15:33:58.918Z,27.30
2023-01-01T15:37:28.295Z,25.95
2023-01-01T15:40:34.600Z,24.85
2023-01-01T15:43:36.620Z,25.63
2023-01-01T15:47:05.730Z,25.75
2023-01-01T15:53:20.125Z,25.35
2023-01-01T15:56:25.659Z,26.52
2023-01-01T15:59:33.993Z,25.88
2023-01-01T16:02:37.613Z,27.42
2023-01-01T16:05:47.721Z,31.00
2023-01-01T16:08:49.915Z,29.73
2023-01-01T16:12:08.070Z,28.67
2023-01-01T16:15:16.485Z,27.77
2023-01-01T16:21:21.936Z,26.10
2023-01-01T16:24:24.638Z,26.30
2023-01-01T16:27:27.001Z,30.48
2023-01-01T16:30:29.081Z,27.33
2023-01-01T16:33:31.372Z,29.58
2023-01-01T16:36:33.721Z,28.83
2023-01-01T16:39:35.795Z,29.95
2023-01-01T16:42:37.882Z,28.90
2023-01-01T16:45:39.907Z,30.33
2023-01-01T16:48:42.634Z,29.17
2023-01-01T16:51:44.767Z,30.52
2023-01-01T16:54:46.854Z,29.02
2023-01-01T16:57:49.014Z,28.58
2023-01-01T17:01:01.149Z,29.90
2023-01-01T17:04:03.384Z,28.33
2023-01-01T17:07:06.303Z,28.27
2023-01-01T17:10:09.730Z,30.48
2023-01-01T17:13:11.765Z,27.65
2023-01-01T17:16:21.156Z,29.48
2023-01-01T17:19:27.391Z,29.88
2023-01-01T17:22:34.167Z,26.95
2023-01-01T17:25:36.744Z,27.38
2023-01-01T17:28:38.841Z,30.20
2023-01-01T17:31:41.969Z,29.05
2023-01-01T17:34:43.996Z,30.92
2023-01-01T17:37:47.345Z,28.83
2023-01-01T17:40:49.405Z,28.23
2023-01-01T17:43:53.364Z,28.23
2023-01-01T17:46:56.416Z,31.42
2023-01-01T17:49:59.298Z,28.73
2023-01-01T17:53:01.456Z,28.58
2023-01-01T17:56:03.694Z,29.85
2023-01-01T17:59:06.125Z,29.48
2023-01-01T18:02:15.237Z,29.70
2023-01-01T18:05:21.302Z,30.67
2023-01-01T18:08:23.517Z,32.13
2023-01-01T18:11:28.745Z,30.83
2023-01-01T18:14:32.086Z,32.40
2023-01-01T18:17:34.196Z,28.58
2023-01-01T18:20:36.419Z,28.60
2023-01-01T18:23:39.945Z,29.95
2023-01-01T18:26:42.713Z,30.45
2023-01-01T18:29:45.413Z,30.23
2023-01-01T18:32:48.793Z,29.55
2023-01-01T18:35:51.253Z,31.33
2023-01-01T18:39:22.135Z,32.83
2023-01-01T18:42:57.983Z,31.30
2023-01-01T18:46:00.051Z,29.63
2023-01-01T18:49:08.828Z,30.17
2023-01-01T18:52:16.599Z,31.08
2023-01-01T18:58:25.043Z,32.15
2023-01-01T19:01:27.157Z,32.15
2023-01-01T19:04:29.557Z,31.95
2023-01-01T19:07:31.722Z,30.02
2023-01-01T19:10:50.792Z,30.90
2023-01-01T19:14:01.066Z,31.02
2023-01-01T19:17:15.228Z,28.83
2023-01-01T19:20:24.187Z,30.70
2023-01-01T19:23:28.184Z,31.33
2023-01-01T19:26:34.659Z,29.67
2023-01-01T19:29:42.111Z,31.25
2023-01-01T19:32:46.136Z,30.25
2023-01-01T19:35:49.356Z,30.17
2023-01-01T19:38:54.551Z,31.20
2023-01-01T19:42:03.993Z,29.60
2023-01-01T19:45:08.685Z,29.30
2023-01-01T19:48:11.137Z,29.92
2023-01-01T19:51:14.372Z,30.50
2023-01-01T19:54:17.157Z,33.00
2023-01-01T19:57:21.081Z,33.28
2023-01-01T20:00:23.909Z,31.05
2023-01-01T20:03:52.775Z,31.70
2023-01-01T20:06:48.792Z,29.65
2023-01-01T20:09:51.026Z,30.38
2023-01-01T20:12:53.193Z,30.00
2023-01-01T20:15:59.243Z,29.23
2023-01-01T20:19:01.390Z,31.52
2023-01-01T20:22:14.313Z,30.13
2023-01-01T20:25:17.546Z,26.92
2023-01-01T20:28:42.003Z,28.33
2023-01-01T20:31:44.122Z,30.70
2023-01-01T20:34:46.336Z,32.25
2023-01-01T20:37:48.391Z,30.05
2023-01-01T20:40:52.909Z,29.92
2023-01-01T20:43:57.572Z,29.67
2023-01-01T20:47:00.921Z,32.13
2023-01-01T20:50:04.142Z,31.95
2023-01-01T20:53:06.253Z,32.08
2023-01-01T20:56:09.823Z,32.13
2023-01-01T20:59:34.101Z,29.00
2023-01-01T21:02:36.637Z,31.88
2023-01-01T21:05:40.792Z,32.70
2023-01-01T21:08:43.639Z,34.72
2023-01-01T21:11:46.898Z,35.33
2023-01-01T21:14:49.724Z,35.05
2023-01-01T21:21:23.168Z,33.17
2023-01-01T21:24:28.078Z,33.45
2023-01-01T21:27:34.994Z,35.75
2023-01-01T21:30:41.031Z,32.10
2023-01-01T21:33:46.292Z,33.40
2023-01-01T21:36:50.873Z,29.60
2023-01-01T21:39:55.074Z,29.85
2023-01-01T21:43:16.564Z,29.63
2023-01-01T21:46:38.098Z,31.20
2023-01-01T21:49:40.806Z,29.17
2023-01-01T21:52:47.489Z,28.13
2023-01-01T21:55:54.065Z,29.40
2023-01-01T21:59:27.773Z,28.13
2023-01-01T22:02:40.141Z,26.95
2023-01-01T22:05:43.583Z,28.48
2023-01-01T22:08:48.513Z,29.75
2023-01-01T22:11:56.698Z,28.40
2023-01-01T22:15:29.703Z,27.15
2023-01-01T22:18:38.501Z,27.20
2023-01-01T22:21:40.774Z,27.83
2023-01-01T22:24:50.995Z,30.48
2023-01-01T22:27:54.658Z,30.13
2023-01-01T22:30:59.197Z,29.50
2023-01-01T22:34:03.588Z,28.17
2023-01-01T22:37:20.951Z,31.45
2023-01-01T22:40:31.434Z,31.63
2023-01-01T22:43:36.550Z,31.50
2023-01-01T22:46:41.036Z,32.08
2023-01-01T22:49:53.967Z,31.77
2023-01-01T22:52:57.324Z,32.20
2023-01-01T22:56:01.045Z,32.75
2023-01-01T22:59:03.104Z,31.33
2023-01-01T23:02:06.828Z,32.78
2023-01-01T23:05:10.017Z,34.15
2023-01-01T23:08:12.198Z,32.40
2023-01-01T23:11:15.341Z,32.92
2023-01-01T23:14:39.251Z,31.45
2023-01-01T23:17:41.555Z,30.80
2023-01-01T23:20:43.673Z,30.67
2023-01-01T23:23:48.755Z,30.02
2023-01-01T23:26:51.895Z,33.35
2023-01-01T23:29:56.834Z,32.78
2023-01-01T23:33:00.798Z,33.53
2023-01-01T23:36:04.150Z,33.40
2023-01-01T23:39:06.588Z,31.50
2023-01-01T23:42:08.730Z,31.10
2023-01-01T23:45:11.053Z,30.65
2023-01-01T23:48:14.244Z,30.52
2023-01-01T23:51:19.406Z,31.50
2023-01-01T23:54:22.156Z,27.63
2023-01-01T23:57:24.253Z,31.02
